createdAt,value
2023-03-13T00:01:18.427Z,62.22
2023-03-13T00:03:46.835Z,62.42
2023-03-13T00:06:15.789Z,62.57
2023-03-13T00:08:44.893Z,62.64
2023-03-13T00:11:15.545Z,62.70
2023-03-13T00:13:44.551Z,62.78
2023-03-13T00:16:15.203Z,62.93
2023-03-13T00:18:48.056Z,63.04
2023-03-13T00:21:17.709Z,62.97
2023-03-13T00:23:46.544Z,62.97
2023-03-13T00:26:17.717Z,63.05
2023-03-13T00:28:47.040Z,63.24
2023-03-13T00:31:18.434Z,63.18
2023-03-13T00:33:48.920Z,63.32
2023-03-13T00:36:22.196Z,63.38
2023-03-13T00:38:50.727Z,63.26
2023-03-13T00:41:22.580Z,63.45
2023-03-13T00:43:51.421Z,63.51
2023-03-13T00:46:21.784Z,63.60
2023-03-13T00:48:50.934Z,63.62
2023-03-13T00:51:20.393Z,63.68
2023-03-13T00:53:49.882Z,63.71
2023-03-13T00:56:19.586Z,63.81
2023-03-13T00:58:49.564Z,63.77
2023-03-13T01:01:22.844Z,64.01
2023-03-13T01:04:11.888Z,64.09
2023-03-13T01:06:43.062Z,63.93
2023-03-13T01:09:14.247Z,64.09
2023-03-13T01:11:44.608Z,64.12
2023-03-13T01:14:19.254Z,64.18
2023-03-13T01:16:47.663Z,64.30
2023-03-13T01:19:16.692Z,64.27
2023-03-13T01:21:46.447Z,64.35
2023-03-13T01:24:14.675Z,64.46
2023-03-13T01:26:44.796Z,64.48
2023-03-13T01:29:13.448Z,64.61
2023-03-13T01:31:41.682Z,64.54
2023-03-13T01:34:10.947Z,64.57
2023-03-13T01:36:38.964Z,64.74
2023-03-13T01:39:07.043Z,64.79
2023-03-13T01:41:35.217Z,64.69
2023-03-13T01:44:03.647Z,64.69
2023-03-13T01:46:34.669Z,64.88
2023-03-13T01:49:39.475Z,64.96
2023-03-13T01:52:17.243Z,65.15
2023-03-13T01:55:13.415Z,65.06
2023-03-13T01:57:49.461Z,65.08
2023-03-13T02:00:23.931Z,65.24
2023-03-13T02:02:55.536Z,65.29
2023-03-13T02:05:27.496Z,65.43
2023-03-13T02:08:06.440Z,65.55
2023-03-13T02:10:42.092Z,65.62
2023-03-13T02:13:15.154Z,65.66
2023-03-13T02:15:43.106Z,65.58
2023-03-13T02:18:11.737Z,65.63
2023-03-13T02:20:40.748Z,65.83
2023-03-13T02:23:25.317Z,65.86
2023-03-13T02:25:53.941Z,65.76
2023-03-13T02:28:35.125Z,65.80
2023-03-13T02:31:06.784Z,65.92
2023-03-13T02:33:39.360Z,65.95
2023-03-13T02:36:08.931Z,66.02
2023-03-13T02:38:49.369Z,66.05
2023-03-13T02:41:20.563Z,66.07
2023-03-13T02:43:48.738Z,66.18
2023-03-13T02:46:20.124Z,66.15
2023-03-13T02:48:53.259Z,66.07
2023-03-13T02:51:22.181Z,66.26
2023-03-13T02:53:52.562Z,66.18
2023-03-13T02:56:24.391Z,66.35
2023-03-13T02:58:52.671Z,66.28
2023-03-13T03:01:23.182Z,66.37
2023-03-13T03:03:51.865Z,66.42
2023-03-13T03:06:19.814Z,66.47
2023-03-13T03:08:48.077Z,66.67
2023-03-13T03:11:16.278Z,66.52
2023-03-13T03:13:45.118Z,66.68
2023-03-13T03:16:18.847Z,66.72
2023-03-13T03:18:47.413Z,66.82
2023-03-13T03:21:15.503Z,66.83
2023-03-13T03:23:43.477Z,66.65
2023-03-13T03:26:11.858Z,66.77
2023-03-13T03:28:40.097Z,66.87
2023-03-13T03:31:13.443Z,66.90
2023-03-13T03:33:42.928Z,66.90
2023-03-13T03:36:15.680Z,67.05
2023-03-13T03:38:44.840Z,67.06
2023-03-13T03:41:14.753Z,67.11
2023-03-13T03:43:43.328Z,67.28
2023-03-13T03:46:12.491Z,67.39
2023-03-13T03:48:40.832Z,67.52
2023-03-13T03:51:09.558Z,67.48
2023-03-13T03:53:40.459Z,67.52
2023-03-13T03:56:08.792Z,67.62
2023-03-13T03:58:40.034Z,67.61
2023-03-13T04:01:14.197Z,67.57
2023-03-13T04:03:42.457Z,67.74
2023-03-13T04:06:10.755Z,67.72
2023-03-13T04:08:38.673Z,67.71
2023-03-13T04:11:06.715Z,67.96
2023-03-13T04:13:38.299Z,68.03
2023-03-13T04:16:10.194Z,68.13
2023-03-13T04:18:39.095Z,68.09
2023-03-13T04:21:07.806Z,68.13
2023-03-13T04:23:44.738Z,68.32
2023-03-13T04:26:14.503Z,68.21
2023-03-13T04:28:42.862Z,68.39
2023-03-13T04:31:12.751Z,68.35
2023-03-13T04:33:53.073Z,68.38
2023-03-13T04:36:41.216Z,68.39
2023-03-13T04:39:27.760Z,68.63
2023-03-13T04:42:24.946Z,68.76
2023-03-13T04:45:13.220Z,68.69
2023-03-13T04:47:56.186Z,68.83
2023-03-13T04:50:33.245Z,68.92
2023-03-13T04:53:13.865Z,68.99
2023-03-13T04:56:05.360Z,68.94
2023-03-13T04:58:54.141Z,69.00
2023-03-13T05:01:42.599Z,69.14
2023-03-13T05:04:19.376Z,69.12
2023-03-13T05:07:22.926Z,69.20
2023-03-13T05:10:06.792Z,69.33
2023-03-13T05:12:47.259Z,69.46
2023-03-13T05:15:50.813Z,69.50
2023-03-13T05:18:31.083Z,69.41
2023-03-13T05:21:21.150Z,69.59
2023-03-13T05:24:08.678Z,69.74
2023-03-13T05:27:02.652Z,69.64
2023-03-13T05:29:56.591Z,69.70
2023-03-13T05:32:50.586Z,69.86
2023-03-13T05:35:56.973Z,69.89
2023-03-13T05:38:48.056Z,69.89
2023-03-13T05:41:31.159Z,70.00
2023-03-13T05:44:25.268Z,70.08
2023-03-13T05:47:18.982Z,70.15
2023-03-13T05:49:47.056Z,70.18
2023-03-13T05:52:44.458Z,70.30
2023-03-13T05:55:23.977Z,70.26
2023-03-13T05:58:10.545Z,70.35
2023-03-13T06:01:06.534Z,70.42
2023-03-13T06:03:48.981Z,70.47
2023-03-13T06:06:18.323Z,70.52
2023-03-13T06:08:54.142Z,70.63
2023-03-13T06:11:23.486Z,70.72
2023-03-13T06:13:52.978Z,70.77
2023-03-13T06:16:27.296Z,70.89
2023-03-13T06:18:59.509Z,70.74
2023-03-13T06:21:27.463Z,70.83
2023-03-13T06:23:56.130Z,70.92
2023-03-13T06:26:25.746Z,70.89
2023-03-13T06:28:53.718Z,70.93
2023-03-13T06:31:21.643Z,70.83
2023-03-13T06:33:53.630Z,70.82
2023-03-13T06:36:23.113Z,70.89
2023-03-13T06:38:51.780Z,70.94
2023-03-13T06:41:19.736Z,70.95
2023-03-13T06:43:47.660Z,70.87
2023-03-13T06:46:19.233Z,70.76
2023-03-13T06:48:47.211Z,70.72
2023-03-13T06:51:18.611Z,70.74
2023-03-13T06:53:47.500Z,70.77
2023-03-13T06:56:15.495Z,70.67
2023-03-13T06:58:46.189Z,70.56
2023-03-13T07:01:15.066Z,70.46
2023-03-13T07:03:44.191Z,70.45
2023-03-13T07:06:12.644Z,70.41
2023-03-13T07:08:40.628Z,70.32
2023-03-13T07:11:11.348Z,70.37
2023-03-13T07:13:39.904Z,70.47
2023-03-13T07:16:13.037Z,70.29
2023-03-13T07:18:42.009Z,69.99
2023-03-13T07:21:11.373Z,69.80
2023-03-13T07:23:39.881Z,69.67
2023-03-13T07:26:12.587Z,69.62
2023-03-13T07:28:40.877Z,69.31
2023-03-13T07:31:13.328Z,69.26
2023-03-13T07:33:41.904Z,69.38
2023-03-13T07:36:10.884Z,69.26
2023-03-13T07:38:38.932Z,68.93
2023-03-13T07:41:07.136Z,69.26
2023-03-13T07:43:35.039Z,70.63
2023-03-13T07:46:06.150Z,71.02
2023-03-13T07:48:39.480Z,70.09
2023-03-13T07:51:13.174Z,69.35
2023-03-13T07:53:41.090Z,69.50
2023-03-13T07:56:15.463Z,69.13
2023-03-13T07:58:44.243Z,68.72
2023-03-13T08:01:16.163Z,68.36
2023-03-13T08:03:45.485Z,68.28
2023-03-13T08:06:17.241Z,68.35
2023-03-13T08:08:45.900Z,67.85
2023-03-13T08:11:18.522Z,67.58
2023-03-13T08:13:47.077Z,67.62
2023-03-13T08:16:17.098Z,67.36
2023-03-13T08:18:47.986Z,67.48
2023-03-13T08:21:20.855Z,67.47
2023-03-13T08:23:48.844Z,67.50
2023-03-13T08:26:18.829Z,67.36
2023-03-13T08:28:48.604Z,67.33
2023-03-13T08:31:20.573Z,67.43
2023-03-13T08:33:48.766Z,67.43
2023-03-13T08:36:24.022Z,67.29
2023-03-13T08:38:54.447Z,67.38
2023-03-13T08:41:25.549Z,67.21
2023-03-13T08:43:53.471Z,67.21
2023-03-13T08:46:22.039Z,67.09
2023-03-13T08:48:54.679Z,66.95
2023-03-13T08:51:25.698Z,67.08
2023-03-13T08:53:56.124Z,67.12
2023-03-13T08:56:26.809Z,66.98
2023-03-13T08:59:00.162Z,67.18
2023-03-13T09:01:33.570Z,67.01
2023-03-13T09:04:04.248Z,67.01
2023-03-13T09:06:35.384Z,66.94
2023-03-13T09:09:05.511Z,66.73
2023-03-13T09:11:34.410Z,66.68
2023-03-13T09:14:02.584Z,66.62
2023-03-13T09:16:32.230Z,66.62
2023-03-13T09:19:00.725Z,66.53
2023-03-13T09:21:34.507Z,66.43
2023-03-13T09:24:03.313Z,66.38
2023-03-13T09:26:31.439Z,66.36
2023-03-13T09:28:59.556Z,66.17
2023-03-13T09:31:30.267Z,65.75
2023-03-13T09:33:58.764Z,65.85
2023-03-13T09:36:28.008Z,65.77
2023-03-13T09:38:58.850Z,65.65
2023-03-13T09:41:51.761Z,65.52
2023-03-13T09:44:27.117Z,65.42
2023-03-13T09:47:01.542Z,65.55
2023-03-13T09:49:41.124Z,65.63
2023-03-13T09:52:27.166Z,65.41
2023-03-13T09:55:01.705Z,65.13
2023-03-13T09:57:37.885Z,65.16
2023-03-13T10:00:13.763Z,65.32
2023-03-13T10:02:47.816Z,65.34
2023-03-13T10:05:23.126Z,65.27
2023-03-13T10:07:51.295Z,65.33
2023-03-13T10:10:27.041Z,65.29
2023-03-13T10:13:03.332Z,65.24
2023-03-13T10:15:58.108Z,65.39
2023-03-13T10:18:26.901Z,65.44
2023-03-13T10:21:00.578Z,65.50
2023-03-13T10:23:39.276Z,65.45
2023-03-13T10:26:15.491Z,65.58
2023-03-13T10:28:43.879Z,65.68
2023-03-13T10:31:25.673Z,65.48
2023-03-13T10:33:53.696Z,65.54
2023-03-13T10:36:23.809Z,65.62
2023-03-13T10:38:54.715Z,65.57
2023-03-13T10:41:33.267Z,65.58
2023-03-13T10:44:05.578Z,65.68
2023-03-13T10:46:40.328Z,65.70
2023-03-13T10:49:18.723Z,65.73
2023-03-13T10:51:52.855Z,65.88
2023-03-13T10:54:29.794Z,65.76
2023-03-13T10:57:19.457Z,65.75
2023-03-13T10:59:50.647Z,65.87
2023-03-13T11:02:35.356Z,65.70
2023-03-13T11:05:23.546Z,65.78
2023-03-13T11:07:53.368Z,65.66
2023-03-13T11:10:23.526Z,65.75
2023-03-13T11:12:53.827Z,65.72
2023-03-13T11:15:24.492Z,65.91
2023-03-13T11:18:27.496Z,65.82
2023-03-13T11:21:08.737Z,65.99
2023-03-13T11:23:47.635Z,65.88
2023-03-13T11:26:34.430Z,65.85
2023-03-13T11:29:02.407Z,65.60
2023-03-13T11:31:39.339Z,65.47
2023-03-13T11:34:28.332Z,65.55
2023-03-13T11:37:10.416Z,65.65
2023-03-13T11:39:55.572Z,65.74
2023-03-13T11:42:48.650Z,65.83
2023-03-13T11:45:28.927Z,65.70
2023-03-13T11:48:01.686Z,65.57
2023-03-13T11:50:55.498Z,65.76
2023-03-13T11:53:38.607Z,66.18
2023-03-13T11:56:46.659Z,66.25
2023-03-13T11:59:33.074Z,66.49
2023-03-13T12:02:13.185Z,66.51
2023-03-13T12:04:45.715Z,66.66
2023-03-13T12:07:35.398Z,66.79
2023-03-13T12:10:26.585Z,66.62
2023-03-13T12:13:05.529Z,66.56
2023-03-13T12:15:50.655Z,66.68
2023-03-13T12:18:42.502Z,66.66
2023-03-13T12:21:38.695Z,66.63
2023-03-13T12:24:29.776Z,66.85
2023-03-13T12:27:05.779Z,66.57
2023-03-13T12:29:44.912Z,66.75
2023-03-13T12:32:34.674Z,66.83
2023-03-13T12:35:08.945Z,66.89
2023-03-13T12:38:17.405Z,66.86
2023-03-13T12:41:14.424Z,66.64
2023-03-13T12:43:49.692Z,66.48
2023-03-13T12:46:25.366Z,66.52
2023-03-13T12:48:56.395Z,66.37
2023-03-13T12:51:32.783Z,66.23
2023-03-13T12:54:15.778Z,66.33
2023-03-13T12:57:02.060Z,66.10
2023-03-13T12:59:36.188Z,66.13
2023-03-13T13:02:16.605Z,65.95
2023-03-13T13:04:48.206Z,66.03
2023-03-13T13:07:19.323Z,65.99
2023-03-13T13:10:12.090Z,65.79
2023-03-13T13:13:07.461Z,65.85
2023-03-13T13:15:35.812Z,65.89
2023-03-13T13:18:24.804Z,65.90
2023-03-13T13:21:01.919Z,65.66
2023-03-13T13:23:37.672Z,65.60
2023-03-13T13:26:47.785Z,65.58
2023-03-13T13:29:18.847Z,65.59
2023-03-13T13:31:51.097Z,65.72
2023-03-13T13:34:28.296Z,65.80
2023-03-13T13:37:01.481Z,65.55
2023-03-13T13:39:47.977Z,65.56
2023-03-13T13:42:59.299Z,65.53
2023-03-13T13:45:36.297Z,65.61
2023-03-13T13:48:28.372Z,65.55
2023-03-13T13:51:11.697Z,65.47
2023-03-13T13:53:59.914Z,65.43
2023-03-13T13:56:28.419Z,65.66
2023-03-13T13:58:59.450Z,65.52
2023-03-13T14:01:27.765Z,65.45
2023-03-13T14:04:11.575Z,65.52
2023-03-13T14:06:44.612Z,65.58
2023-03-13T14:09:40.167Z,65.71
2023-03-13T14:12:34.747Z,65.88
2023-03-13T14:15:29.182Z,65.74
2023-03-13T14:18:09.012Z,65.77
2023-03-13T14:21:01.719Z,65.69
2023-03-13T14:23:45.065Z,65.62
2023-03-13T14:26:16.141Z,65.85
2023-03-13T14:28:55.811Z,65.67
2023-03-13T14:31:34.778Z,65.49
2023-03-13T14:34:05.670Z,65.46
2023-03-13T14:37:14.984Z,65.51
2023-03-13T14:39:46.307Z,65.58
2023-03-13T14:42:18.109Z,65.63
2023-03-13T14:44:50.333Z,65.61
2023-03-13T14:47:30.662Z,65.43
2023-03-13T14:50:01.636Z,65.47
2023-03-13T14:52:31.015Z,65.41
2023-03-13T14:55:06.676Z,65.20
2023-03-13T14:57:35.959Z,65.32
2023-03-13T15:00:47.182Z,65.49
2023-03-13T15:03:19.061Z,65.25
2023-03-13T15:06:05.749Z,65.13
2023-03-13T15:08:42.902Z,65.24
2023-03-13T15:11:25.764Z,65.06
2023-03-13T15:13:54.825Z,65.31
2023-03-13T15:16:24.939Z,65.16
2023-03-13T15:18:54.623Z,65.07
2023-03-13T15:21:22.677Z,65.10
2023-03-13T15:24:15.363Z,65.08
2023-03-13T15:26:43.566Z,65.13
2023-03-13T15:29:11.665Z,65.14
2023-03-13T15:31:40.217Z,65.26
2023-03-13T15:34:13.748Z,65.41
2023-03-13T15:36:42.652Z,65.21
2023-03-13T15:39:16.633Z,65.17
2023-03-13T15:41:44.841Z,65.13
2023-03-13T15:44:12.873Z,65.06
2023-03-13T15:46:41.011Z,65.25
2023-03-13T15:49:13.054Z,65.21
2023-03-13T15:51:41.112Z,65.26
2023-03-13T15:54:09.177Z,65.23
2023-03-13T15:56:38.756Z,65.14
2023-03-13T15:59:14.944Z,65.25
2023-03-13T16:01:45.354Z,65.24
2023-03-13T16:04:13.489Z,65.21
2023-03-13T16:06:41.706Z,65.49
2023-03-13T16:09:11.361Z,65.54
2023-03-13T16:11:39.674Z,65.64
2023-03-13T16:14:07.716Z,65.59
2023-03-13T16:16:37.832Z,65.83
2023-03-13T16:19:07.710Z,65.78
2023-03-13T16:21:36.244Z,65.88
2023-03-13T16:24:04.661Z,65.98
2023-03-13T16:26:32.748Z,65.89
2023-03-13T16:29:01.240Z,65.97
2023-03-13T16:31:31.804Z,66.01
2023-03-13T16:34:01.086Z,66.22
2023-03-13T16:36:33.365Z,66.27
2023-03-13T16:39:21.611Z,66.18
2023-03-13T16:41:49.714Z,66.28
2023-03-13T16:44:17.733Z,66.38
2023-03-13T16:46:59.066Z,66.49
2023-03-13T16:49:32.833Z,66.64
2023-03-13T16:52:01.020Z,66.71
2023-03-13T16:54:29.019Z,66.69
2023-03-13T16:56:58.964Z,66.73
2023-03-13T16:59:27.072Z,66.59
2023-03-13T17:01:55.049Z,66.78
2023-03-13T17:04:23.242Z,66.93
2023-03-13T17:06:52.873Z,66.96
2023-03-13T17:09:21.054Z,67.15
2023-03-13T17:11:49.268Z,67.12
2023-03-13T17:14:17.273Z,67.35
2023-03-13T17:16:46.186Z,67.30
2023-03-13T17:19:15.489Z,67.33
2023-03-13T17:21:43.637Z,67.35
2023-03-13T17:24:11.858Z,67.31
2023-03-13T17:26:40.870Z,67.52
2023-03-13T17:29:16.556Z,67.54
2023-03-13T17:31:45.413Z,67.57
2023-03-13T17:34:13.443Z,67.54
2023-03-13T17:36:42.042Z,67.45
2023-03-13T17:39:13.218Z,67.66
2023-03-13T17:41:41.611Z,67.58
2023-03-13T17:44:09.886Z,67.68
2023-03-13T17:46:39.548Z,67.60
2023-03-13T17:49:10.838Z,67.80
2023-03-13T17:51:41.473Z,67.69
2023-03-13T17:54:09.522Z,67.85
2023-03-13T17:56:40.271Z,67.82
2023-03-13T17:59:13.060Z,67.90
2023-03-13T18:01:42.274Z,67.87
2023-03-13T18:04:11.347Z,68.11
2023-03-13T18:06:45.158Z,68.01
2023-03-13T18:09:15.522Z,67.90
2023-03-13T18:11:43.822Z,67.74
2023-03-13T18:14:12.054Z,67.93
2023-03-13T18:16:48.568Z,67.87
2023-03-13T18:19:34.574Z,67.82
2023-03-13T18:22:02.782Z,67.98
2023-03-13T18:24:31.264Z,67.97
2023-03-13T18:26:59.481Z,67.98
2023-03-13T18:29:27.748Z,68.15
2023-03-13T18:31:58.985Z,68.05
2023-03-13T18:34:28.687Z,67.99
2023-03-13T18:36:57.314Z,68.08
2023-03-13T18:39:25.515Z,68.12
2023-03-13T18:41:53.449Z,68.40
2023-03-13T18:44:21.705Z,68.39
2023-03-13T18:46:52.004Z,68.45
2023-03-13T18:49:22.499Z,68.49
2023-03-13T18:51:53.939Z,68.40
2023-03-13T18:54:22.511Z,68.48
2023-03-13T18:56:50.389Z,68.58
2023-03-13T18:59:21.553Z,68.46
2023-03-13T19:01:51.018Z,68.45
2023-03-13T19:04:19.524Z,68.57
2023-03-13T19:06:48.238Z,68.46
2023-03-13T19:09:41.654Z,68.58
2023-03-13T19:12:06.655Z,68.70
2023-03-13T19:14:34.809Z,68.69
2023-03-13T19:17:07.084Z,68.64
2023-03-13T19:19:35.441Z,68.56
2023-03-13T19:22:03.732Z,68.80
2023-03-13T19:24:31.754Z,68.77
2023-03-13T19:26:59.784Z,68.89
2023-03-13T19:29:29.098Z,68.83
2023-03-13T19:31:59.020Z,69.03
2023-03-13T19:34:27.144Z,68.96
2023-03-13T19:36:55.238Z,69.02
2023-03-13T19:39:25.906Z,68.96
2023-03-13T19:41:54.126Z,68.95
2023-03-13T19:44:22.692Z,68.90
2023-03-13T19:46:51.659Z,68.85
2023-03-13T19:49:21.065Z,68.93
2023-03-13T19:51:49.421Z,69.11
2023-03-13T19:54:17.714Z,69.16
2023-03-13T19:56:49.192Z,69.07
2023-03-13T19:59:19.626Z,69.19
2023-03-13T20:01:48.002Z,69.14
2023-03-13T20:04:16.444Z,69.14
2023-03-13T20:06:45.669Z,69.12
2023-03-13T20:09:16.551Z,69.11
2023-03-13T20:11:44.818Z,69.14
2023-03-13T20:14:12.799Z,69.05
2023-03-13T20:16:40.762Z,68.99
2023-03-13T20:19:08.667Z,69.00
2023-03-13T20:21:41.121Z,68.87
2023-03-13T20:24:10.438Z,68.92
2023-03-13T20:26:38.375Z,69.05
2023-03-13T20:29:06.286Z,68.95
2023-03-13T20:31:34.318Z,69.01
2023-03-13T20:34:02.281Z,68.90
2023-03-13T20:36:30.278Z,68.78
2023-03-13T20:38:58.220Z,68.72
2023-03-13T20:41:31.030Z,68.59
2023-03-13T20:43:59.248Z,68.57
2023-03-13T20:46:27.238Z,68.76
2023-03-13T20:48:56.809Z,68.62
2023-03-13T20:51:26.913Z,68.57
2023-03-13T20:53:54.859Z,68.51
2023-03-13T20:56:22.777Z,68.40
2023-03-13T20:58:50.826Z,68.26
2023-03-13T21:01:19.738Z,68.30
2023-03-13T21:03:47.905Z,68.21
2023-03-13T21:06:17.989Z,68.12
2023-03-13T21:08:47.092Z,67.97
2023-03-13T21:11:21.591Z,67.93
2023-03-13T21:13:50.310Z,67.86
2023-03-13T21:16:19.897Z,67.75
2023-03-13T21:18:47.943Z,67.51
2023-03-13T21:21:18.958Z,67.46
2023-03-13T21:23:47.222Z,67.26
2023-03-13T21:26:15.765Z,67.16
2023-03-13T21:28:43.743Z,66.89
2023-03-13T21:31:21.136Z,66.80
2023-03-13T21:33:49.410Z,66.37
2023-03-13T21:36:20.959Z,66.41
2023-03-13T21:38:50.284Z,66.32
2023-03-13T21:41:21.382Z,66.20
2023-03-13T21:43:49.253Z,66.17
2023-03-13T21:46:19.860Z,66.11
2023-03-13T21:48:47.866Z,66.00
2023-03-13T21:51:17.072Z,65.84
2023-03-13T21:53:44.938Z,65.53
2023-03-13T21:56:15.689Z,65.35
2023-03-13T21:58:45.579Z,65.43
2023-03-13T22:01:14.873Z,65.57
2023-03-13T22:03:43.104Z,65.74
2023-03-13T22:06:15.978Z,65.75
2023-03-13T22:08:44.233Z,65.62
2023-03-13T22:11:12.342Z,65.61
2023-03-13T22:13:40.239Z,65.61
2023-03-13T22:16:10.451Z,65.51
2023-03-13T22:18:39.495Z,65.38
2023-03-13T22:21:07.453Z,65.24
2023-03-13T22:23:35.476Z,65.24
2023-03-13T22:26:03.892Z,65.06
2023-03-13T22:28:31.854Z,64.48
2023-03-13T22:31:01.725Z,64.34
2023-03-13T22:33:29.683Z,64.25
2023-03-13T22:35:57.683Z,64.13
2023-03-13T22:38:25.824Z,64.30
2023-03-13T22:41:02.024Z,64.41
2023-03-13T22:43:30.257Z,64.19
2023-03-13T22:45:59.684Z,64.04
2023-03-13T22:48:27.632Z,64.04
2023-03-13T22:51:04.133Z,63.99
2023-03-13T22:53:33.093Z,64.02
2023-03-13T22:56:01.002Z,63.65
2023-03-13T22:58:29.324Z,63.26
2023-03-13T23:00:57.255Z,63.20
2023-03-13T23:03:25.130Z,62.93
2023-03-13T23:05:53.005Z,62.99
2023-03-13T23:08:20.920Z,62.95
2023-03-13T23:10:48.877Z,62.95
2023-03-13T23:13:16.817Z,62.78
2023-03-13T23:15:59.931Z,62.81
2023-03-13T23:18:28.063Z,62.68
2023-03-13T23:20:56.046Z,62.32
2023-03-13T23:23:24.334Z,62.39
2023-03-13T23:25:52.230Z,62.36
2023-03-13T23:28:20.092Z,62.44
2023-03-13T23:30:47.933Z,62.34
2023-03-13T23:33:15.769Z,62.41
2023-03-13T23:35:44.986Z,62.40
2023-03-13T23:38:13.420Z,62.45
2023-03-13T23:40:41.311Z,62.45
2023-03-13T23:43:09.311Z,62.38
2023-03-13T23:45:37.192Z,62.36
2023-03-13T23:48:05.285Z,62.42
2023-03-13T23:50:33.126Z,62.46
2023-03-13T23:53:00.980Z,62.31
2023-03-13T23:55:28.936Z,62.34
2023-03-13T23:57:56.864Z,62.30
